Time;durP1;ratioP1;P1;durP2;ratioP2;P2;SDS_P1;SDS_P2;PMS_P1;PMS_P2;Temp;Humidity;BMP_temperature;BMP_pressure;BME280_temperature;BME280_humidity;BME280_pressure;Samples;Min_cycle;Max_cycle;Signal;HPM_P1;HPM_P2
2023/05/12 00:00:37;;;;;;;3.50;1.92;;;;;;;;;;5030061;28;20025;-71
2023/05/12 00:03:03;;;;;;;5.82;2.22;;;;;;;;;;5029931;28;20143;-66
2023/05/12 00:05:28;;;;;;;8.43;2.38;;;;;;;;;;5030152;28;20017;-69
2023/05/12 00:07:54;;;;;;;5.78;2.50;;;;;;;;;;5030434;28;20021;-69
2023/05/12 00:10:19;;;;;;;5.03;2.30;;;;;;;;;;5029859;28;20026;-70
2023/05/12 00:12:45;;;;;;;4.60;2.13;;;;;;;;;;5029648;28;20013;-69
2023/05/12 00:15:10;;;;;;;5.18;2.35;;;;;;;;;;5029615;28;20107;-70
2023/05/12 00:17:36;;;;;;;3.92;2.00;;;;;;;;;;5029458;28;20459;-71
2023/05/12 00:20:01;;;;;;;6.22;2.42;;;;;;;;;;5029507;28;20025;-70
2023/05/12 00:22:26;;;;;;;5.75;2.47;;;;;;;;;;5029561;28;20032;-70
2023/05/12 00:24:51;;;;;;;10.85;2.65;;;;;;;;;;5028283;28;20101;-66
2023/05/12 00:27:17;;;;;;;7.53;2.28;;;;;;;;;;5029617;28;20013;-68
2023/05/12 00:29:42;;;;;;;6.70;2.05;;;;;;;;;;5029554;28;20021;-66
2023/05/12 00:32:07;;;;;;;8.27;2.80;;;;;;;;;;5029310;28;20032;-69
2023/05/12 00:34:33;;;;;;;5.38;2.60;;;;;;;;;;5029462;28;20037;-69
2023/05/12 00:36:58;;;;;;;10.05;3.38;;;;;;;;;;5029940;28;20144;-70
2023/05/12 00:39:23;;;;;;;8.43;2.60;;;;;;;;;;5029666;28;20036;-71
2023/05/12 00:41:53;;;;;;;7.53;2.45;;;;;;;;;;5022150;28;20102;-68
2023/05/12 00:44:18;;;;;;;5.65;2.88;;;;;;;;;;5026779;28;20029;-69
2023/05/12 00:46:44;;;;;;;7.97;3.22;;;;;;;;;;5028300;28;20020;-68
2023/05/12 00:49:09;;;;;;;6.53;3.00;;;;;;;;;;5030223;28;20029;-72
2023/05/12 00:51:34;;;;;;;7.10;3.30;;;;;;;;;;5029692;28;20025;-68
2023/05/12 00:54:00;;;;;;;9.40;3.22;;;;;;;;;;5029538;28;20498;-69
2023/05/12 00:56:25;;;;;;;13.95;3.40;;;;;;;;;;5029446;28;20021;-69
2023/05/12 00:58:50;;;;;;;6.40;3.45;;;;;;;;;;5029302;28;20021;-66
2023/05/12 01:01:15;;;;;;;8.95;2.80;;;;;;;;;;5056503;23;20521;-63
2023/05/12 01:03:41;;;;;;;6.43;2.63;;;;;;;;;;5049198;28;20017;-63
2023/05/12 01:06:11;;;;;;;6.00;2.75;;;;;;;;;;5050296;28;20467;-64
2023/05/12 01:08:37;;;;;;;8.10;2.88;;;;;;;;;;5050040;28;20049;-64
2023/05/12 01:11:02;;;;;;;7.00;2.85;;;;;;;;;;5044788;28;20103;-61
2023/05/12 01:13:28;;;;;;;5.00;2.88;;;;;;;;;;5033629;28;20179;-64
2023/05/12 01:15:54;;;;;;;9.55;3.35;;;;;;;;;;5031722;28;20022;-62
2023/05/12 01:18:20;;;;;;;8.15;3.30;;;;;;;;;;5030296;28;20033;-61
2023/05/12 01:20:46;;;;;;;5.35;3.00;;;;;;;;;;5030361;28;20537;-64
2023/05/12 01:23:12;;;;;;;12.65;3.08;;;;;;;;;;5030288;28;20027;-64
2023/05/12 01:25:38;;;;;;;5.53;2.85;;;;;;;;;;5024030;28;20497;-63
2023/05/12 01:28:04;;;;;;;8.00;3.15;;;;;;;;;;5030077;28;20104;-64
2023/05/12 01:30:30;;;;;;;5.32;2.85;;;;;;;;;;5030083;28;20013;-63
2023/05/12 01:32:56;;;;;;;6.22;2.90;;;;;;;;;;5030398;28;20113;-64
2023/05/12 01:35:21;;;;;;;7.78;2.65;;;;;;;;;;5035458;28;20107;-63
2023/05/12 01:37:46;;;;;;;6.53;3.10;;;;;;;;;;5037821;28;20121;-63
2023/05/12 01:40:11;;;;;;;11.50;2.90;;;;;;;;;;5030012;28;20052;-62
2023/05/12 01:42:40;;;;;;;4.88;2.47;;;;;;;;;;5030112;28;20183;-62
2023/05/12 01:45:06;;;;;;;17.65;3.35;;;;;;;;;;5030232;28;20024;-62
2023/05/12 01:47:31;;;;;;;10.05;3.00;;;;;;;;;;5022954;28;20106;-64
2023/05/12 01:49:56;;;;;;;6.80;3.60;;;;;;;;;;5035193;28;20458;-64
2023/05/12 01:52:22;;;;;;;9.15;3.10;;;;;;;;;;5038276;28;20020;-60
2023/05/12 01:54:47;;;;;;;4.32;2.30;;;;;;;;;;5043229;28;20097;-64
2023/05/12 01:57:12;;;;;;;5.97;2.95;;;;;;;;;;5041627;28;20066;-64
2023/05/12 01:59:37;;;;;;;7.07;2.70;;;;;;;;;;5023934;28;20037;-62
2023/05/12 02:02:03;;;;;;;7.00;2.88;;;;;;;;;;5040876;28;20470;-62
2023/05/12 02:04:28;;;;;;;4.75;2.60;;;;;;;;;;5035965;28;20029;-63
2023/05/12 02:06:53;;;;;;;6.38;2.97;;;;;;;;;;5032850;28;20021;-63
2023/05/12 02:09:18;;;;;;;13.68;2.85;;;;;;;;;;5022009;28;20037;-60
2023/05/12 02:11:44;;;;;;;6.07;3.05;;;;;;;;;;5037616;28;20075;-63
2023/05/12 02:14:09;;;;;;;9.75;2.83;;;;;;;;;;5029310;28;20052;-62
2023/05/12 02:16:34;;;;;;;5.70;2.95;;;;;;;;;;5038655;28;20078;-63
2023/05/12 02:18:59;;;;;;;8.60;2.90;;;;;;;;;;5037244;28;20016;-62
2023/05/12 02:21:25;;;;;;;6.90;2.85;;;;;;;;;;5032925;28;20028;-63
2023/05/12 02:23:50;;;;;;;6.78;2.85;;;;;;;;;;5042206;28;20036;-59
2023/05/12 02:26:15;;;;;;;5.90;2.85;;;;;;;;;;5029677;28;20029;-64
2023/05/12 02:28:40;;;;;;;9.93;3.20;;;;;;;;;;5029871;28;20055;-61
2023/05/12 02:31:06;;;;;;;6.63;2.70;;;;;;;;;;5041672;28;20017;-63
2023/05/12 02:33:31;;;;;;;7.15;3.45;;;;;;;;;;5030143;28;20504;-63
2023/05/12 02:35:56;;;;;;;11.98;2.70;;;;;;;;;;5030028;28;20096;-63
2023/05/12 02:38:22;;;;;;;13.65;3.13;;;;;;;;;;5029965;28;20033;-62
2023/05/12 02:40:47;;;;;;;10.65;2.70;;;;;;;;;;5030155;28;20084;-62
2023/05/12 02:43:12;;;;;;;5.57;2.95;;;;;;;;;;5034041;28;20048;-63
2023/05/12 02:45:38;;;;;;;5.55;2.80;;;;;;;;;;5031800;28;20029;-63
2023/05/12 02:48:04;;;;;;;7.03;2.70;;;;;;;;;;5033281;28;20043;-64
2023/05/12 02:50:29;;;;;;;7.90;2.65;;;;;;;;;;5033507;28;20439;-62
2023/05/12 02:52:54;;;;;;;8.15;2.97;;;;;;;;;;5033131;28;20010;-64
2023/05/12 02:55:20;;;;;;;21.35;3.17;;;;;;;;;;5032384;28;20033;-64
2023/05/12 02:57:45;;;;;;;8.10;3.85;;;;;;;;;;5038563;28;20359;-65
2023/05/12 03:00:11;;;;;;;9.60;3.03;;;;;;;;;;5040620;28;20036;-63
2023/05/12 03:02:37;;;;;;;8.32;3.15;;;;;;;;;;5045604;28;20032;-60
2023/05/12 03:05:03;;;;;;;6.95;3.30;;;;;;;;;;5020162;28;20029;-63
2023/05/12 03:07:28;;;;;;;7.72;3.13;;;;;;;;;;5019135;28;20029;-62
2023/05/12 03:09:53;;;;;;;6.38;3.17;;;;;;;;;;5032819;28;20013;-64
2023/05/12 03:12:18;;;;;;;7.78;2.80;;;;;;;;;;5040364;28;20470;-62
2023/05/12 03:14:44;;;;;;;6.18;2.70;;;;;;;;;;5029067;28;20439;-62
2023/05/12 03:17:09;;;;;;;4.97;2.70;;;;;;;;;;5040156;28;20498;-64
2023/05/12 03:19:34;;;;;;;5.18;2.95;;;;;;;;;;5032696;28;20053;-63
2023/05/12 03:22:00;;;;;;;8.18;3.15;;;;;;;;;;5032668;28;20025;-62
2023/05/12 03:24:25;;;;;;;5.55;2.78;;;;;;;;;;5032310;28;20075;-59
2023/05/12 03:26:50;;;;;;;19.75;3.67;;;;;;;;;;5032443;28;20100;-61
2023/05/12 03:29:16;;;;;;;9.90;3.47;;;;;;;;;;5044068;28;20032;-60
2023/05/12 03:31:41;;;;;;;6.28;2.58;;;;;;;;;;5038528;28;20040;-63
2023/05/12 03:34:06;;;;;;;7.07;3.03;;;;;;;;;;5043374;28;20048;-62
2023/05/12 03:36:31;;;;;;;11.80;3.05;;;;;;;;;;5033053;28;20033;-62
2023/05/12 03:38:57;;;;;;;10.18;2.95;;;;;;;;;;5031028;28;20075;-62
2023/05/12 03:41:22;;;;;;;8.85;3.03;;;;;;;;;;5032080;28;20032;-64
2023/05/12 03:43:47;;;;;;;10.00;4.00;;;;;;;;;;5041428;28;20397;-62
2023/05/12 03:46:13;;;;;;;9.20;3.08;;;;;;;;;;5032316;28;20540;-63
2023/05/12 03:48:38;;;;;;;14.00;3.15;;;;;;;;;;5032226;28;20021;-63
2023/05/12 03:51:03;;;;;;;7.10;3.13;;;;;;;;;;5032051;28;20025;-64
2023/05/12 03:53:29;;;;;;;5.85;3.13;;;;;;;;;;5030225;28;20028;-62
2023/05/12 03:55:54;;;;;;;7.68;3.20;;;;;;;;;;5034242;28;20166;-63
2023/05/12 03:58:21;;;;;;;5.60;2.78;;;;;;;;;;5042032;28;20026;-64
2023/05/12 04:00:48;;;;;;;11.32;3.65;;;;;;;;;;5031820;28;20063;-62
2023/05/12 04:03:14;;;;;;;8.18;2.97;;;;;;;;;;5040456;28;20402;-60
2023/05/12 04:05:40;;;;;;;9.35;3.28;;;;;;;;;;5041436;28;20018;-63
2023/05/12 04:08:05;;;;;;;7.07;3.50;;;;;;;;;;5026334;28;20468;-64
2023/05/12 04:10:30;;;;;;;10.88;3.20;;;;;;;;;;5029530;28;20030;-63
2023/05/12 04:12:56;;;;;;;7.80;3.13;;;;;;;;;;5032142;28;20481;-59
2023/05/12 04:15:21;;;;;;;8.50;4.13;;;;;;;;;;5026630;28;20463;-62
2023/05/12 04:17:46;;;;;;;13.90;3.75;;;;;;;;;;5023133;28;20018;-64
2023/05/12 04:20:12;;;;;;;7.47;3.53;;;;;;;;;;5029049;28;20360;-62
2023/05/12 04:22:37;;;;;;;7.25;3.63;;;;;;;;;;5041131;28;20028;-63
2023/05/12 04:25:02;;;;;;;8.48;3.42;;;;;;;;;;5028475;28;20028;-63
2023/05/12 04:27:28;;;;;;;7.95;3.50;;;;;;;;;;5021965;28;20097;-62
2023/05/12 04:29:53;;;;;;;9.45;3.60;;;;;;;;;;5031685;28;20022;-63
2023/05/12 04:32:18;;;;;;;9.82;3.85;;;;;;;;;;5043180;28;20410;-63
2023/05/12 04:34:43;;;;;;;7.72;3.78;;;;;;;;;;5032013;28;20029;-63
2023/05/12 04:37:09;;;;;;;9.43;3.33;;;;;;;;;;5022551;28;20054;-64
2023/05/12 04:39:34;;;;;;;6.78;3.80;;;;;;;;;;5041783;28;20497;-61
2023/05/12 04:42:00;;;;;;;14.75;4.53;;;;;;;;;;5030055;28;20032;-64
2023/05/12 04:44:25;;;;;;;8.13;3.88;;;;;;;;;;5016481;28;20063;-63
2023/05/12 04:46:54;;;;;;;8.75;4.10;;;;;;;;;;5025900;28;20025;-64
2023/05/12 04:49:20;;;;;;;8.00;3.95;;;;;;;;;;5030272;28;20721;-63
2023/05/12 04:51:45;;;;;;;9.88;4.18;;;;;;;;;;5038015;28;20097;-63
2023/05/12 04:54:10;;;;;;;13.23;4.40;;;;;;;;;;5030434;28;20501;-65
2023/05/12 04:56:36;;;;;;;16.70;4.28;;;;;;;;;;5028822;28;20061;-64
2023/05/12 04:59:01;;;;;;;9.82;4.15;;;;;;;;;;5029678;28;20029;-64
2023/05/12 05:01:27;;;;;;;16.75;4.15;;;;;;;;;;5032370;28;20032;-65
2023/05/12 05:03:52;;;;;;;7.57;4.28;;;;;;;;;;5039535;28;20017;-65
2023/05/12 05:06:17;;;;;;;13.48;4.22;;;;;;;;;;5038868;28;20413;-64
2023/05/12 05:08:42;;;;;;;9.20;4.15;;;;;;;;;;5039710;28;20025;-64
2023/05/12 05:11:08;;;;;;;11.00;4.15;;;;;;;;;;5034594;28;20101;-63
2023/05/12 05:13:33;;;;;;;14.30;4.07;;;;;;;;;;5008376;28;20049;-65
2023/05/12 05:15:59;;;;;;;15.15;4.22;;;;;;;;;;5007718;28;20119;-65
2023/05/12 05:18:24;;;;;;;10.48;3.95;;;;;;;;;;5036395;28;20036;-65
2023/05/12 05:20:49;;;;;;;11.38;4.45;;;;;;;;;;5035464;28;20028;-64
2023/05/12 05:23:14;;;;;;;9.98;4.70;;;;;;;;;;5026117;28;20025;-64
2023/05/12 05:25:40;;;;;;;12.25;4.22;;;;;;;;;;5018361;28;20028;-65
2023/05/12 05:28:05;;;;;;;9.93;4.47;;;;;;;;;;5026561;28;20036;-64
2023/05/12 05:30:30;;;;;;;22.27;5.07;;;;;;;;;;5030465;28;20031;-61
2023/05/12 05:32:56;;;;;;;13.20;4.55;;;;;;;;;;5011892;28;20454;-63
2023/05/12 05:35:21;;;;;;;10.50;4.30;;;;;;;;;;5008690;28;20061;-64
2023/05/12 05:37:46;;;;;;;9.15;4.57;;;;;;;;;;5007840;28;20104;-65
2023/05/12 05:40:11;;;;;;;18.70;4.68;;;;;;;;;;5007739;28;20048;-63
2023/05/12 05:42:37;;;;;;;12.68;4.00;;;;;;;;;;5009495;28;20044;-64
2023/05/12 05:45:02;;;;;;;21.27;5.13;;;;;;;;;;5006982;28;20029;-64
2023/05/12 05:47:27;;;;;;;9.88;4.88;;;;;;;;;;5006537;28;20149;-64
2023/05/12 05:49:53;;;;;;;11.25;4.57;;;;;;;;;;5007824;28;20018;-65
2023/05/12 05:52:19;;;;;;;9.70;4.13;;;;;;;;;;5005570;28;20029;-63
2023/05/12 05:54:44;;;;;;;13.90;4.50;;;;;;;;;;5011149;28;20318;-64
2023/05/12 05:57:09;;;;;;;14.52;4.20;;;;;;;;;;5010134;28;20115;-64
2023/05/12 05:59:35;;;;;;;11.07;4.55;;;;;;;;;;5008265;28;20029;-64
2023/05/12 06:02:00;;;;;;;9.48;4.28;;;;;;;;;;5005413;28;20928;-65
2023/05/12 06:04:26;;;;;;;18.05;5.57;;;;;;;;;;5008793;28;20060;-64
2023/05/12 06:06:51;;;;;;;9.88;4.57;;;;;;;;;;5010808;28;20215;-64
2023/05/12 06:09:16;;;;;;;14.60;4.68;;;;;;;;;;5007731;28;20029;-67
2023/05/12 06:11:41;;;;;;;14.73;5.00;;;;;;;;;;5010478;28;20056;-65
2023/05/12 06:14:07;;;;;;;11.23;4.82;;;;;;;;;;5006806;28;20483;-67
2023/05/12 06:16:32;;;;;;;8.38;4.22;;;;;;;;;;5010116;28;20537;-65
2023/05/12 06:18:57;;;;;;;8.32;4.00;;;;;;;;;;5006671;28;20523;-64
2023/05/12 06:21:22;;;;;;;12.63;4.65;;;;;;;;;;5006178;28;20423;-65
2023/05/12 06:23:50;;;;;;;14.35;4.63;;;;;;;;;;5010982;28;20044;-63
2023/05/12 06:26:15;;;;;;;9.65;4.40;;;;;;;;;;5011818;28;20117;-65
2023/05/12 06:28:40;;;;;;;13.52;5.03;;;;;;;;;;5009723;28;20101;-62
2023/05/12 06:31:07;;;;;;;11.65;4.30;;;;;;;;;;5005039;28;20022;-67
2023/05/12 06:33:32;;;;;;;9.88;4.72;;;;;;;;;;5007797;28;20116;-62
2023/05/12 06:35:58;;;;;;;13.20;5.05;;;;;;;;;;5007251;28;20038;-61
2023/05/12 06:38:23;;;;;;;20.08;4.97;;;;;;;;;;5008145;28;20030;-64
2023/05/12 06:40:48;;;;;;;12.65;5.00;;;;;;;;;;5006618;28;20101;-64
2023/05/12 06:43:13;;;;;;;9.10;4.40;;;;;;;;;;5009431;28;20033;-64
2023/05/12 06:45:39;;;;;;;8.88;4.50;;;;;;;;;;5008295;28;20030;-65
2023/05/12 06:48:04;;;;;;;15.80;4.25;;;;;;;;;;5009430;28;20748;-64
2023/05/12 06:50:30;;;;;;;10.77;4.00;;;;;;;;;;5006229;28;20034;-62
2023/05/12 06:52:55;;;;;;;11.13;4.68;;;;;;;;;;5004422;28;20030;-62
2023/05/12 06:55:21;;;;;;;10.07;4.38;;;;;;;;;;5004851;28;20708;-63
2023/05/12 06:57:46;;;;;;;16.35;4.97;;;;;;;;;;5029097;28;20468;-62
2023/05/12 07:00:12;;;;;;;9.93;4.78;;;;;;;;;;5034605;23;20049;-72
2023/05/12 07:02:37;;;;;;;9.35;4.50;;;;;;;;;;5021622;28;20652;-69
2023/05/12 07:05:03;;;;;;;14.63;4.32;;;;;;;;;;5025147;28;20025;-71
2023/05/12 07:07:28;;;;;;;10.35;4.45;;;;;;;;;;5024326;28;20047;-72
2023/05/12 07:09:53;;;;;;;15.93;4.65;;;;;;;;;;5024991;28;20548;-71
2023/05/12 07:12:18;;;;;;;19.40;5.15;;;;;;;;;;5026543;28;20111;-70
2023/05/12 07:14:44;;;;;;;11.30;4.68;;;;;;;;;;5025091;28;20131;-71
2023/05/12 07:17:09;;;;;;;11.85;4.38;;;;;;;;;;5025281;28;20032;-68
2023/05/12 07:19:34;;;;;;;9.40;4.32;;;;;;;;;;5026454;28;20037;-70
2023/05/12 07:22:00;;;;;;;12.60;4.28;;;;;;;;;;5022681;28;20044;-69
2023/05/12 07:24:26;;;;;;;7.70;3.88;;;;;;;;;;5023953;28;20056;-69
2023/05/12 07:26:51;;;;;;;11.88;3.97;;;;;;;;;;5026237;28;20037;-70
2023/05/12 07:29:17;;;;;;;10.07;3.65;;;;;;;;;;5026088;28;20104;-69
2023/05/12 07:31:42;;;;;;;11.45;3.35;;;;;;;;;;5029214;28;20467;-70
2023/05/12 07:34:07;;;;;;;8.40;4.00;;;;;;;;;;5030560;28;20659;-69
2023/05/12 07:36:33;;;;;;;10.65;3.28;;;;;;;;;;5029614;28;20060;-68
2023/05/12 07:38:58;;;;;;;11.57;3.70;;;;;;;;;;5047612;28;20017;-67
2023/05/12 07:41:23;;;;;;;10.48;3.42;;;;;;;;;;5043319;28;20056;-73
2023/05/12 07:43:48;;;;;;;10.35;3.45;;;;;;;;;;5046490;28;20678;-70
2023/05/12 07:46:14;;;;;;;10.38;3.05;;;;;;;;;;5040341;28;20415;-70
2023/05/12 07:48:39;;;;;;;7.30;3.20;;;;;;;;;;5042348;28;20364;-71
2023/05/12 07:51:05;;;;;;;11.38;3.38;;;;;;;;;;5050130;28;20510;-68
2023/05/12 07:53:30;;;;;;;7.72;3.10;;;;;;;;;;5049926;28;20085;-69
2023/05/12 07:55:55;;;;;;;13.65;3.58;;;;;;;;;;5050665;28;20108;-69
2023/05/12 07:58:21;;;;;;;14.27;3.90;;;;;;;;;;5049800;28;20182;-69
2023/05/12 08:00:46;;;;;;;9.48;3.30;;;;;;;;;;5049303;28;20560;-68
2023/05/12 08:03:12;;;;;;;16.40;3.65;;;;;;;;;;5050280;28;20520;-69
2023/05/12 08:05:37;;;;;;;8.88;3.53;;;;;;;;;;5044234;28;20020;-65
2023/05/12 08:08:02;;;;;;;8.40;3.25;;;;;;;;;;5040798;28;20025;-69
2023/05/12 08:10:28;;;;;;;9.60;3.38;;;;;;;;;;5048937;28;20028;-68
2023/05/12 08:12:54;;;;;;;12.07;4.13;;;;;;;;;;5044828;28;20071;-67
2023/05/12 08:15:19;;;;;;;9.18;3.33;;;;;;;;;;5046641;28;20114;-69
2023/05/12 08:17:44;;;;;;;12.25;3.53;;;;;;;;;;5050113;28;20020;-66
2023/05/12 08:20:10;;;;;;;9.10;3.25;;;;;;;;;;5049886;28;20082;-71
2023/05/12 08:22:35;;;;;;;8.23;2.90;;;;;;;;;;5049756;28;20025;-70
2023/05/12 08:25:00;;;;;;;9.90;2.88;;;;;;;;;;5049452;28;20454;-69
2023/05/12 08:27:26;;;;;;;5.70;3.10;;;;;;;;;;5049744;28;20124;-70
2023/05/12 08:29:51;;;;;;;6.30;3.17;;;;;;;;;;5050308;28;20366;-70
2023/05/12 08:32:16;;;;;;;5.78;2.80;;;;;;;;;;5049396;28;20025;-68
2023/05/12 08:34:41;;;;;;;10.55;2.97;;;;;;;;;;5050032;28;20023;-70
2023/05/12 08:37:07;;;;;;;9.90;3.20;;;;;;;;;;5049599;28;20100;-71
2023/05/12 08:39:32;;;;;;;10.68;2.92;;;;;;;;;;5046988;28;20013;-70
2023/05/12 08:42:19;;;;;;;7.82;2.33;;;;;;;;;;5049077;28;20044;-71
2023/05/12 08:44:45;;;;;;;9.52;2.90;;;;;;;;;;5048582;28;20016;-70
2023/05/12 08:47:11;;;;;;;8.20;2.95;;;;;;;;;;5046604;28;20063;-68
2023/05/12 08:49:38;;;;;;;9.45;3.22;;;;;;;;;;5049527;28;20049;-67
2023/05/12 08:52:03;;;;;;;15.48;3.20;;;;;;;;;;5064538;28;20032;-68
2023/05/12 08:54:29;;;;;;;6.38;2.80;;;;;;;;;;5049142;28;20012;-68
2023/05/12 08:56:55;;;;;;;10.82;3.45;;;;;;;;;;5049237;28;20028;-71
2023/05/12 08:59:21;;;;;;;10.88;3.25;;;;;;;;;;5048636;28;20455;-70
2023/05/12 09:01:47;;;;;;;7.72;2.80;;;;;;;;;;5048137;28;20493;-69
2023/05/12 09:04:14;;;;;;;6.15;3.05;;;;;;;;;;5048162;28;20028;-71
2023/05/12 09:06:40;;;;;;;13.63;3.25;;;;;;;;;;5040129;28;20079;-70
2023/05/12 09:09:06;;;;;;;10.10;3.55;;;;;;;;;;5040911;28;20106;-66
2023/05/12 09:11:31;;;;;;;6.38;3.00;;;;;;;;;;5048730;28;20017;-68
2023/05/12 09:14:02;;;;;;;11.23;3.10;;;;;;;;;;5043821;28;20474;-69
2023/05/12 09:16:36;;;;;;;6.55;2.63;;;;;;;;;;5041982;28;20025;-68
2023/05/12 09:19:02;;;;;;;9.48;3.05;;;;;;;;;;5036696;28;20013;-68
2023/05/12 09:21:27;;;;;;;8.43;3.30;;;;;;;;;;5048113;28;20136;-68
2023/05/12 09:23:52;;;;;;;10.13;3.38;;;;;;;;;;5048463;28;20020;-69
2023/05/12 09:26:18;;;;;;;8.98;2.70;;;;;;;;;;5048663;28;20108;-67
2023/05/12 09:28:43;;;;;;;9.40;3.00;;;;;;;;;;5048446;28;20038;-68
2023/05/12 09:31:15;;;;;;;8.68;3.00;;;;;;;;;;5047837;28;20112;-70
2023/05/12 09:33:40;;;;;;;12.30;3.90;;;;;;;;;;5047784;28;20170;-67
2023/05/12 09:36:06;;;;;;;12.98;2.97;;;;;;;;;;5048562;28;20495;-69
2023/05/12 09:38:31;;;;;;;7.55;3.00;;;;;;;;;;5048720;28;20473;-69
2023/05/12 09:40:56;;;;;;;6.47;2.70;;;;;;;;;;5048254;28;20029;-68
2023/05/12 09:43:21;;;;;;;14.75;3.33;;;;;;;;;;5042929;28;20556;-72
2023/05/12 09:45:49;;;;;;;8.75;3.55;;;;;;;;;;5045190;28;20014;-67
2023/05/12 09:48:14;;;;;;;6.25;2.75;;;;;;;;;;5047856;28;20056;-69
2023/05/12 09:50:43;;;;;;;8.23;2.72;;;;;;;;;;5047979;28;20097;-70
2023/05/12 09:53:09;;;;;;;;;;;;;;;;;;5047303;28;20124;-70
2023/05/12 09:55:34;;;;;;;10.70;3.15;;;;;;;;;;5048020;28;19905;-69
2023/05/12 09:58:01;;;;;;;8.23;2.80;;;;;;;;;;5048138;28;20339;-67
2023/05/12 10:00:26;;;;;;;6.88;2.92;;;;;;;;;;5048228;28;20158;-69
2023/05/12 10:02:52;;;;;;;8.40;3.60;;;;;;;;;;5047214;28;20068;-70
2023/05/12 10:05:19;;;;;;;7.60;3.20;;;;;;;;;;5047693;28;20036;-66
2023/05/12 10:07:46;;;;;;;13.45;3.72;;;;;;;;;;5048480;28;20023;-70
2023/05/12 10:10:14;;;;;;;8.05;2.95;;;;;;;;;;5047778;28;20013;-69
2023/05/12 10:12:40;;;;;;;15.53;3.47;;;;;;;;;;5046658;28;20120;-70
2023/05/12 10:15:07;;;;;;;8.32;3.35;;;;;;;;;;5044327;28;20080;-71
2023/05/12 10:17:33;;;;;;;5.93;3.60;;;;;;;;;;5047469;28;20058;-70
2023/05/12 10:19:59;;;;;;;5.72;2.85;;;;;;;;;;5048112;28;20091;-70
2023/05/12 10:22:25;;;;;;;6.28;3.28;;;;;;;;;;5046443;28;20029;-69
2023/05/12 10:24:51;;;;;;;11.80;3.00;;;;;;;;;;5047724;28;20503;-70
2023/05/12 10:27:17;;;;;;;8.70;3.13;;;;;;;;;;5049862;28;20025;-68
2023/05/12 10:29:42;;;;;;;7.68;3.08;;;;;;;;;;5034832;28;20017;-68
2023/05/12 10:32:08;;;;;;;10.05;3.95;;;;;;;;;;5047866;28;20025;-67
2023/05/12 10:34:35;;;;;;;10.23;3.30;;;;;;;;;;5047276;28;20013;-69
2023/05/12 10:37:03;;;;;;;5.97;2.67;;;;;;;;;;5047738;28;20017;-67
2023/05/12 10:39:28;;;;;;;8.40;3.35;;;;;;;;;;5047943;28;20020;-69
2023/05/12 10:42:24;;;;;;;8.30;2.80;;;;;;;;;;5047222;28;20028;-70
2023/05/12 10:44:50;;;;;;;10.18;3.13;;;;;;;;;;5046275;28;20029;-71
2023/05/12 10:47:16;;;;;;;10.60;3.20;;;;;;;;;;5043598;28;20029;-70
2023/05/12 10:49:41;;;;;;;12.63;3.53;;;;;;;;;;5047532;28;20070;-70
2023/05/12 10:52:09;;;;;;;10.35;3.00;;;;;;;;;;5047110;28;20029;-70
2023/05/12 10:54:44;;;;;;;5.97;2.95;;;;;;;;;;5034096;28;20025;-67
2023/05/12 10:57:13;;;;;;;5.85;2.90;;;;;;;;;;5047763;28;20308;-71
2023/05/12 10:59:51;;;;;;;7.15;3.05;;;;;;;;;;5047313;28;20024;-69
2023/05/12 11:02:17;;;;;;;;;;;;;;;;;;5048898;28;20037;-70
2023/05/12 11:04:52;;;;;;;9.57;2.45;;;;;;;;;;5051043;28;19995;-71
2023/05/12 11:07:21;;;;;;;9.77;2.95;;;;;;;;;;5039973;28;20013;-68
2023/05/12 11:09:47;;;;;;;6.80;3.20;;;;;;;;;;5050859;28;20316;-67
2023/05/12 11:12:13;;;;;;;6.03;3.00;;;;;;;;;;5051230;28;20118;-70
2023/05/12 11:14:39;;;;;;;10.88;3.00;;;;;;;;;;5044048;28;20378;-68
2023/05/12 11:17:04;;;;;;;15.02;3.00;;;;;;;;;;5050517;28;20124;-71
2023/05/12 11:19:30;;;;;;;11.70;3.22;;;;;;;;;;5049471;28;20045;-68
2023/05/12 11:21:55;;;;;;;8.82;3.58;;;;;;;;;;5050292;28;20032;-66
2023/05/12 11:24:21;;;;;;;9.10;3.13;;;;;;;;;;5050754;28;20013;-70
2023/05/12 11:26:50;;;;;;;5.88;2.45;;;;;;;;;;5051954;28;20036;-70
2023/05/12 11:29:19;;;;;;;10.10;3.40;;;;;;;;;;5051216;28;20023;-66
2023/05/12 11:31:44;;;;;;;;;;;;;;;;;;5050503;28;20044;-70
2023/05/12 11:34:10;;;;;;;15.50;2.90;;;;;;;;;;5049100;28;19913;-70
2023/05/12 11:36:36;;;;;;;10.53;3.23;;;;;;;;;;5050856;28;20024;-69
2023/05/12 11:39:02;;;;;;;7.40;3.20;;;;;;;;;;5050978;28;20345;-69
2023/05/12 11:41:27;;;;;;;12.75;3.58;;;;;;;;;;5050635;28;20466;-70
2023/05/12 11:43:52;;;;;;;8.65;2.85;;;;;;;;;;5046261;28;20600;-67
2023/05/12 11:46:25;;;;;;;5.68;2.50;;;;;;;;;;5050374;28;20043;-69
2023/05/12 11:48:54;;;;;;;5.15;2.58;;;;;;;;;;5050685;28;20053;-70
2023/05/12 11:51:19;;;;;;;5.63;2.80;;;;;;;;;;5051192;28;20036;-67
2023/05/12 11:53:45;;;;;;;14.60;3.20;;;;;;;;;;5048940;28;20021;-69
2023/05/12 11:56:16;;;;;;;7.43;3.08;;;;;;;;;;5050474;28;20021;-69
2023/05/12 11:58:50;;;;;;;6.63;2.35;;;;;;;;;;5048246;28;20016;-72
2023/05/12 12:01:15;;;;;;;6.40;2.58;;;;;;;;;;5050512;28;20033;-68
2023/05/12 12:03:47;;;;;;;6.75;2.70;;;;;;;;;;5049113;28;20352;-67
2023/05/12 12:06:13;;;;;;;6.72;3.22;;;;;;;;;;5042017;28;20043;-69
2023/05/12 12:08:48;;;;;;;5.25;2.42;;;;;;;;;;5046917;28;20394;-70
2023/05/12 12:11:13;;;;;;;13.70;2.50;;;;;;;;;;5040929;28;20033;-68
2023/05/12 12:13:46;;;;;;;8.27;2.60;;;;;;;;;;5043717;28;20386;-70
2023/05/12 12:16:11;;;;;;;6.10;2.63;;;;;;;;;;5044409;28;20190;-69
2023/05/12 12:18:36;;;;;;;5.22;2.83;;;;;;;;;;5049415;28;20482;-72
2023/05/12 12:21:01;;;;;;;9.20;2.45;;;;;;;;;;5050057;28;20029;-67
2023/05/12 12:23:27;;;;;;;6.05;2.60;;;;;;;;;;5048574;28;20423;-70
2023/05/12 12:25:52;;;;;;;7.43;2.15;;;;;;;;;;5048555;28;20028;-69
2023/05/12 12:28:18;;;;;;;6.65;2.28;;;;;;;;;;5049254;28;20410;-69
2023/05/12 12:30:47;;;;;;;8.52;2.65;;;;;;;;;;5049442;28;20364;-69
2023/05/12 12:33:12;;;;;;;;;;;;;;;;;;5042462;28;20578;-70
2023/05/12 12:35:37;;;;;;;5.35;2.20;;;;;;;;;;5047415;28;19936;-70
2023/05/12 12:38:02;;;;;;;5.33;2.60;;;;;;;;;;5039809;28;20123;-69
2023/05/12 12:40:27;;;;;;;4.90;2.20;;;;;;;;;;5047036;28;20852;-72
2023/05/12 12:42:53;;;;;;;5.70;2.63;;;;;;;;;;5049352;28;20516;-66
2023/05/12 12:45:18;;;;;;;14.20;2.40;;;;;;;;;;5048415;28;20052;-71
2023/05/12 12:47:43;;;;;;;5.93;2.40;;;;;;;;;;5048828;28;20024;-69
2023/05/12 12:50:09;;;;;;;5.78;2.42;;;;;;;;;;5048689;28;20462;-70
2023/05/12 12:52:35;;;;;;;7.05;2.63;;;;;;;;;;5048836;28;20025;-69
2023/05/12 12:55:01;;;;;;;6.45;2.20;;;;;;;;;;5047497;28;20029;-67
2023/05/12 12:57:26;;;;;;;5.03;2.45;;;;;;;;;;5048977;28;20506;-70
2023/05/12 12:59:51;;;;;;;10.05;2.40;;;;;;;;;;5048110;28;20047;-69
2023/05/12 13:02:16;;;;;;;14.40;2.55;;;;;;;;;;5049752;28;20113;-70
2023/05/12 13:04:42;;;;;;;5.68;2.80;;;;;;;;;;5047890;28;20426;-66
2023/05/12 13:07:07;;;;;;;5.05;2.28;;;;;;;;;;5045910;28;20468;-68
2023/05/12 13:09:32;;;;;;;5.13;2.33;;;;;;;;;;5046001;28;20100;-70
2023/05/12 13:11:58;;;;;;;6.82;2.58;;;;;;;;;;5048189;28;20374;-70
2023/05/12 13:14:23;;;;;;;10.35;2.40;;;;;;;;;;5042220;28;20500;-70
2023/05/12 13:16:49;;;;;;;8.63;2.40;;;;;;;;;;5047995;28;20044;-66
2023/05/12 13:19:14;;;;;;;8.07;2.42;;;;;;;;;;5049124;28;20035;-70
2023/05/12 13:21:40;;;;;;;6.50;2.33;;;;;;;;;;5042563;28;20509;-68
2023/05/12 13:24:06;;;;;;;10.50;3.22;;;;;;;;;;5043781;28;20073;-72
2023/05/12 13:26:31;;;;;;;9.85;2.70;;;;;;;;;;5047395;28;20025;-67
2023/05/12 13:28:56;;;;;;;10.30;2.80;;;;;;;;;;5048027;28;20094;-68
2023/05/12 13:31:22;;;;;;;9.65;2.65;;;;;;;;;;5045056;28;20627;-70
2023/05/12 13:33:47;;;;;;;7.15;2.25;;;;;;;;;;5046512;28;20013;-68
2023/05/12 13:36:12;;;;;;;9.40;2.50;;;;;;;;;;5045085;28;20099;-67
2023/05/12 13:38:38;;;;;;;9.13;2.58;;;;;;;;;;5047774;28;20544;-66
2023/05/12 13:41:03;;;;;;;10.60;2.20;;;;;;;;;;5045325;28;20033;-71
2023/05/12 13:43:28;;;;;;;12.07;3.03;;;;;;;;;;5043874;28;20028;-66
2023/05/12 13:45:53;;;;;;;9.73;2.25;;;;;;;;;;5045150;28;20024;-69
2023/05/12 13:48:18;;;;;;;7.37;2.87;;;;;;;;;;5047908;28;20434;-71
2023/05/12 13:50:44;;;;;;;6.43;2.90;;;;;;;;;;5047679;28;20804;-72
2023/05/12 13:53:11;;;;;;;6.83;2.53;;;;;;;;;;5046992;28;20017;-69
2023/05/12 13:55:37;;;;;;;8.88;2.60;;;;;;;;;;5047495;28;20333;-69
2023/05/12 13:58:02;;;;;;;10.23;3.00;;;;;;;;;;5047878;28;20032;-67
2023/05/12 14:00:28;;;;;;;8.70;2.60;;;;;;;;;;5047248;28;20033;-69
2023/05/12 14:02:53;;;;;;;4.97;2.53;;;;;;;;;;5047811;28;20021;-70
2023/05/12 14:05:19;;;;;;;8.23;3.00;;;;;;;;;;5047282;28;20032;-70
2023/05/12 14:07:44;;;;;;;14.82;2.78;;;;;;;;;;5047906;28;20013;-66
2023/05/12 14:10:09;;;;;;;16.20;2.67;;;;;;;;;;5047458;28;20020;-68
2023/05/12 14:12:35;;;;;;;9.98;2.80;;;;;;;;;;5046672;28;20813;-69
2023/05/12 14:15:02;;;;;;;7.55;2.70;;;;;;;;;;5041375;28;20113;-68
2023/05/12 14:17:27;;;;;;;5.18;1.95;;;;;;;;;;5047852;28;20013;-67
2023/05/12 14:19:52;;;;;;;8.50;2.67;;;;;;;;;;5047215;28;20025;-70
2023/05/12 14:22:18;;;;;;;5.50;2.70;;;;;;;;;;5047180;28;20025;-67
2023/05/12 14:24:43;;;;;;;8.20;2.80;;;;;;;;;;5047365;28;20270;-70
2023/05/12 14:27:08;;;;;;;8.65;2.45;;;;;;;;;;5048021;28;20514;-68
2023/05/12 14:29:34;;;;;;;8.38;2.20;;;;;;;;;;5047622;28;20041;-70
2023/05/12 14:31:59;;;;;;;10.82;2.80;;;;;;;;;;5047752;28;20094;-67